sensor_id;sensor_type;location;lat;lon;timestamp;P1;durP1;ratioP1;P2;durP2;ratioP2
30697;SDS011;17448;47.200;10.902;2023-04-07T00:00:57;5.07;;;2.85;;
30697;SDS011;17448;47.200;10.902;2023-04-07T00:03:24;4.65;;;3.05;;
30697;SDS011;17448;47.200;10.902;2023-04-07T00:05:50;3.75;;;2.70;;
30697;SDS011;17448;47.200;10.902;2023-04-07T00:08:16;4.40;;;3.05;;
30697;SDS011;17448;47.200;10.902;2023-04-07T00:10:42;4.80;;;3.28;;
30697;SDS011;17448;47.200;10.902;2023-04-07T00:13:09;5.22;;;2.90;;
30697;SDS011;17448;47.200;10.902;2023-04-07T00:15:35;3.92;;;2.80;;
30697;SDS011;17448;47.200;10.902;2023-04-07T00:18:01;4.00;;;2.58;;
30697;SDS011;17448;47.200;10.902;2023-04-07T00:20:27;3.63;;;2.60;;
30697;SDS011;17448;47.200;10.902;2023-04-07T00:22:53;4.65;;;2.75;;
30697;SDS011;17448;47.200;10.902;2023-04-07T00:25:20;6.90;;;2.75;;
30697;SDS011;17448;47.200;10.902;2023-04-07T00:27:46;3.83;;;2.67;;
30697;SDS011;17448;47.200;10.902;2023-04-07T00:30:12;9.27;;;3.47;;
30697;SDS011;17448;47.200;10.902;2023-04-07T00:32:39;7.10;;;2.60;;
30697;SDS011;17448;47.200;10.902;2023-04-07T00:35:06;5.70;;;2.88;;
30697;SDS011;17448;47.200;10.902;2023-04-07T00:37:32;3.75;;;2.78;;
30697;SDS011;17448;47.200;10.902;2023-04-07T00:39:58;5.45;;;2.70;;
30697;SDS011;17448;47.200;10.902;2023-04-07T00:42:24;4.32;;;3.35;;
30697;SDS011;17448;47.200;10.902;2023-04-07T00:44:50;6.18;;;3.15;;
30697;SDS011;17448;47.200;10.902;2023-04-07T00:47:17;8.23;;;3.53;;
30697;SDS011;17448;47.200;10.902;2023-04-07T00:49:43;5.38;;;2.90;;
30697;SDS011;17448;47.200;10.902;2023-04-07T00:52:09;8.68;;;3.45;;
30697;SDS011;17448;47.200;10.902;2023-04-07T00:54:36;4.63;;;2.97;;
30697;SDS011;17448;47.200;10.902;2023-04-07T00:57:02;6.80;;;2.80;;
30697;SDS011;17448;47.200;10.902;2023-04-07T00:59:28;8.15;;;3.45;;
30697;SDS011;17448;47.200;10.902;2023-04-07T01:02:04;5.93;;;3.08;;
30697;SDS011;17448;47.200;10.902;2023-04-07T01:07:22;5.70;;;2.83;;
30697;SDS011;17448;47.200;10.902;2023-04-07T01:10:06;5.18;;;3.05;;
30697;SDS011;17448;47.200;10.902;2023-04-07T01:12:43;5.68;;;2.95;;
30697;SDS011;17448;47.200;10.902;2023-04-07T01:15:13;3.78;;;2.83;;
30697;SDS011;17448;47.200;10.902;2023-04-07T01:17:44;4.47;;;3.33;;
30697;SDS011;17448;47.200;10.902;2023-04-07T01:20:15;4.72;;;2.70;;
30697;SDS011;17448;47.200;10.902;2023-04-07T01:22:46;4.85;;;3.00;;
30697;SDS011;17448;47.200;10.902;2023-04-07T01:30:17;5.03;;;2.78;;
30697;SDS011;17448;47.200;10.902;2023-04-07T01:32:45;7.07;;;2.72;;
30697;SDS011;17448;47.200;10.902;2023-04-07T01:35:12;5.38;;;2.75;;
30697;SDS011;17448;47.200;10.902;2023-04-07T01:37:39;3.90;;;2.72;;
30697;SDS011;17448;47.200;10.902;2023-04-07T01:40:06;6.88;;;3.00;;
30697;SDS011;17448;47.200;10.902;2023-04-07T01:42:32;5.57;;;3.10;;
30697;SDS011;17448;47.200;10.902;2023-04-07T01:44:59;3.72;;;2.75;;
30697;SDS011;17448;47.200;10.902;2023-04-07T01:47:26;4.00;;;2.80;;
30697;SDS011;17448;47.200;10.902;2023-04-07T01:49:57;6.10;;;3.30;;
30697;SDS011;17448;47.200;10.902;2023-04-07T01:52:25;4.35;;;2.83;;
30697;SDS011;17448;47.200;10.902;2023-04-07T01:54:52;4.55;;;2.60;;
30697;SDS011;17448;47.200;10.902;2023-04-07T01:57:18;3.95;;;2.40;;
30697;SDS011;17448;47.200;10.902;2023-04-07T01:59:48;6.30;;;2.85;;
30697;SDS011;17448;47.200;10.902;2023-04-07T02:02:17;4.18;;;2.70;;
30697;SDS011;17448;47.200;10.902;2023-04-07T02:04:46;5.45;;;2.80;;
30697;SDS011;17448;47.200;10.902;2023-04-07T02:07:15;4.43;;;2.60;;
30697;SDS011;17448;47.200;10.902;2023-04-07T02:09:47;4.93;;;2.75;;
30697;SDS011;17448;47.200;10.902;2023-04-07T02:12:15;5.18;;;2.85;;
30697;SDS011;17448;47.200;10.902;2023-04-07T02:14:56;6.15;;;3.75;;
30697;SDS011;17448;47.200;10.902;2023-04-07T02:17:23;5.85;;;3.00;;
30697;SDS011;17448;47.200;10.902;2023-04-07T02:19:50;9.40;;;2.95;;
30697;SDS011;17448;47.200;10.902;2023-04-07T02:22:17;4.82;;;2.65;;
30697;SDS011;17448;47.200;10.902;2023-04-07T02:24:44;3.08;;;1.88;;
30697;SDS011;17448;47.200;10.902;2023-04-07T02:27:11;6.53;;;3.17;;
30697;SDS011;17448;47.200;10.902;2023-04-07T02:29:37;3.58;;;2.50;;
30697;SDS011;17448;47.200;10.902;2023-04-07T02:32:04;5.57;;;2.70;;
30697;SDS011;17448;47.200;10.902;2023-04-07T02:34:30;6.55;;;3.13;;
30697;SDS011;17448;47.200;10.902;2023-04-07T02:36:56;3.63;;;2.60;;
30697;SDS011;17448;47.200;10.902;2023-04-07T02:39:22;5.28;;;3.58;;
30697;SDS011;17448;47.200;10.902;2023-04-07T02:41:49;5.50;;;2.70;;
30697;SDS011;17448;47.200;10.902;2023-04-07T02:44:15;4.32;;;2.85;;
30697;SDS011;17448;47.200;10.902;2023-04-07T02:46:41;5.10;;;2.83;;
30697;SDS011;17448;47.200;10.902;2023-04-07T02:49:07;3.95;;;2.70;;
30697;SDS011;17448;47.200;10.902;2023-04-07T02:51:33;6.10;;;2.70;;
30697;SDS011;17448;47.200;10.902;2023-04-07T02:54:00;6.30;;;3.03;;
30697;SDS011;17448;47.200;10.902;2023-04-07T02:56:26;5.75;;;3.10;;
30697;SDS011;17448;47.200;10.902;2023-04-07T02:58:52;4.25;;;2.60;;
30697;SDS011;17448;47.200;10.902;2023-04-07T03:01:19;6.35;;;2.55;;
30697;SDS011;17448;47.200;10.902;2023-04-07T03:03:46;6.65;;;3.00;;
30697;SDS011;17448;47.200;10.902;2023-04-07T03:06:19;6.13;;;3.08;;
30697;SDS011;17448;47.200;10.902;2023-04-07T03:08:58;6.70;;;3.30;;
30697;SDS011;17448;47.200;10.902;2023-04-07T03:11:25;4.47;;;2.92;;
30697;SDS011;17448;47.200;10.902;2023-04-07T03:13:51;4.53;;;2.67;;
30697;SDS011;17448;47.200;10.902;2023-04-07T03:16:18;6.25;;;3.30;;
30697;SDS011;17448;47.200;10.902;2023-04-07T03:18:57;6.93;;;3.50;;
30697;SDS011;17448;47.200;10.902;2023-04-07T03:21:24;6.95;;;3.38;;
30697;SDS011;17448;47.200;10.902;2023-04-07T03:23:50;6.68;;;3.70;;
30697;SDS011;17448;47.200;10.902;2023-04-07T03:26:17;5.45;;;3.65;;
30697;SDS011;17448;47.200;10.902;2023-04-07T03:28:43;5.97;;;3.22;;
30697;SDS011;17448;47.200;10.902;2023-04-07T03:31:10;10.32;;;3.08;;
30697;SDS011;17448;47.200;10.902;2023-04-07T03:33:36;5.60;;;3.08;;
30697;SDS011;17448;47.200;10.902;2023-04-07T03:36:02;5.93;;;2.97;;
30697;SDS011;17448;47.200;10.902;2023-04-07T03:38:29;7.75;;;3.13;;
30697;SDS011;17448;47.200;10.902;2023-04-07T03:40:59;6.70;;;3.10;;
30697;SDS011;17448;47.200;10.902;2023-04-07T03:43:25;5.15;;;2.88;;
30697;SDS011;17448;47.200;10.902;2023-04-07T03:45:52;6.70;;;4.03;;
30697;SDS011;17448;47.200;10.902;2023-04-07T03:48:20;6.43;;;3.33;;
30697;SDS011;17448;47.200;10.902;2023-04-07T03:50:56;5.03;;;3.05;;
30697;SDS011;17448;47.200;10.902;2023-04-07T03:53:22;5.20;;;3.25;;
30697;SDS011;17448;47.200;10.902;2023-04-07T03:55:50;6.82;;;3.10;;
30697;SDS011;17448;47.200;10.902;2023-04-07T03:58:26;7.90;;;3.30;;
30697;SDS011;17448;47.200;10.902;2023-04-07T04:00:52;4.03;;;2.83;;
30697;SDS011;17448;47.200;10.902;2023-04-07T04:03:18;5.20;;;3.03;;
30697;SDS011;17448;47.200;10.902;2023-04-07T04:05:56;5.47;;;3.17;;
30697;SDS011;17448;47.200;10.902;2023-04-07T04:08:26;4.70;;;3.35;;
30697;SDS011;17448;47.200;10.902;2023-04-07T04:10:52;6.75;;;3.63;;
30697;SDS011;17448;47.200;10.902;2023-04-07T04:13:19;5.80;;;2.90;;
30697;SDS011;17448;47.200;10.902;2023-04-07T04:15:47;6.80;;;2.85;;
30697;SDS011;17448;47.200;10.902;2023-04-07T04:18:15;8.20;;;3.05;;
30697;SDS011;17448;47.200;10.902;2023-04-07T04:20:42;7.75;;;3.22;;
30697;SDS011;17448;47.200;10.902;2023-04-07T04:23:08;4.28;;;2.72;;
30697;SDS011;17448;47.200;10.902;2023-04-07T04:25:35;7.70;;;3.50;;
30697;SDS011;17448;47.200;10.902;2023-04-07T04:28:06;4.20;;;3.08;;
30697;SDS011;17448;47.200;10.902;2023-04-07T04:30:33;3.92;;;3.00;;
30697;SDS011;17448;47.200;10.902;2023-04-07T04:33:02;5.65;;;3.30;;
30697;SDS011;17448;47.200;10.902;2023-04-07T04:36:00;8.15;;;3.90;;
30697;SDS011;17448;47.200;10.902;2023-04-07T04:38:28;5.70;;;3.60;;
30697;SDS011;17448;47.200;10.902;2023-04-07T04:41:13;4.78;;;3.35;;
30697;SDS011;17448;47.200;10.902;2023-04-07T04:43:39;5.68;;;3.03;;
30697;SDS011;17448;47.200;10.902;2023-04-07T04:46:06;4.78;;;2.90;;
30697;SDS011;17448;47.200;10.902;2023-04-07T04:48:37;7.00;;;3.10;;
30697;SDS011;17448;47.200;10.902;2023-04-07T04:51:06;7.95;;;3.17;;
30697;SDS011;17448;47.200;10.902;2023-04-07T04:53:33;6.30;;;3.17;;
30697;SDS011;17448;47.200;10.902;2023-04-07T04:56:00;6.75;;;2.80;;
30697;SDS011;17448;47.200;10.902;2023-04-07T04:58:43;6.90;;;3.35;;
30697;SDS011;17448;47.200;10.902;2023-04-07T05:01:34;9.70;;;4.03;;
30697;SDS011;17448;47.200;10.902;2023-04-07T05:04:05;6.82;;;3.58;;
30697;SDS011;17448;47.200;10.902;2023-04-07T05:06:33;8.00;;;3.22;;
30697;SDS011;17448;47.200;10.902;2023-04-07T05:09:05;9.40;;;3.05;;
30697;SDS011;17448;47.200;10.902;2023-04-07T05:11:39;6.95;;;3.55;;
30697;SDS011;17448;47.200;10.902;2023-04-07T05:14:06;7.18;;;3.05;;
30697;SDS011;17448;47.200;10.902;2023-04-07T05:16:32;6.28;;;3.03;;
30697;SDS011;17448;47.200;10.902;2023-04-07T05:18:59;5.47;;;3.05;;
30697;SDS011;17448;47.200;10.902;2023-04-07T05:21:25;6.45;;;3.08;;
30697;SDS011;17448;47.200;10.902;2023-04-07T05:23:55;7.05;;;3.55;;
30697;SDS011;17448;47.200;10.902;2023-04-07T05:26:22;8.98;;;3.15;;
30697;SDS011;17448;47.200;10.902;2023-04-07T05:28:49;9.57;;;3.50;;
30697;SDS011;17448;47.200;10.902;2023-04-07T05:31:19;6.57;;;3.20;;
30697;SDS011;17448;47.200;10.902;2023-04-07T05:33:48;8.25;;;4.07;;
30697;SDS011;17448;47.200;10.902;2023-04-07T05:36:14;5.82;;;3.55;;
30697;SDS011;17448;47.200;10.902;2023-04-07T05:38:41;5.18;;;3.10;;
30697;SDS011;17448;47.200;10.902;2023-04-07T05:41:12;6.57;;;3.60;;
30697;SDS011;17448;47.200;10.902;2023-04-07T05:43:38;5.70;;;3.38;;
30697;SDS011;17448;47.200;10.902;2023-04-07T05:46:05;8.55;;;3.70;;
30697;SDS011;17448;47.200;10.902;2023-04-07T05:48:34;12.10;;;4.57;;
30697;SDS011;17448;47.200;10.902;2023-04-07T05:51:02;8.32;;;3.28;;
30697;SDS011;17448;47.200;10.902;2023-04-07T05:53:29;5.47;;;3.20;;
30697;SDS011;17448;47.200;10.902;2023-04-07T05:55:55;7.28;;;3.53;;
30697;SDS011;17448;47.200;10.902;2023-04-07T05:58:40;6.65;;;3.88;;
30697;SDS011;17448;47.200;10.902;2023-04-07T06:01:08;9.35;;;3.08;;
30697;SDS011;17448;47.200;10.902;2023-04-07T06:03:35;4.45;;;3.08;;
30697;SDS011;17448;47.200;10.902;2023-04-07T06:06:14;8.48;;;3.90;;
30697;SDS011;17448;47.200;10.902;2023-04-07T06:08:41;7.03;;;4.07;;
30697;SDS011;17448;47.200;10.902;2023-04-07T06:11:07;8.70;;;3.80;;
30697;SDS011;17448;47.200;10.902;2023-04-07T06:13:33;8.27;;;3.72;;
30697;SDS011;17448;47.200;10.902;2023-04-07T06:15:59;8.55;;;3.90;;
30697;SDS011;17448;47.200;10.902;2023-04-07T06:18:26;7.90;;;3.88;;
30697;SDS011;17448;47.200;10.902;2023-04-07T06:20:52;7.45;;;3.70;;
30697;SDS011;17448;47.200;10.902;2023-04-07T06:23:18;8.57;;;4.25;;
30697;SDS011;17448;47.200;10.902;2023-04-07T06:25:45;8.40;;;4.57;;
30697;SDS011;17448;47.200;10.902;2023-04-07T06:28:15;9.68;;;4.70;;
30697;SDS011;17448;47.200;10.902;2023-04-07T06:30:42;10.57;;;5.07;;
30697;SDS011;17448;47.200;10.902;2023-04-07T06:33:11;7.75;;;4.35;;
30697;SDS011;17448;47.200;10.902;2023-04-07T06:35:39;8.13;;;4.63;;
30697;SDS011;17448;47.200;10.902;2023-04-07T06:38:05;11.00;;;5.05;;
30697;SDS011;17448;47.200;10.902;2023-04-07T06:40:32;13.27;;;5.60;;
30697;SDS011;17448;47.200;10.902;2023-04-07T06:42:58;11.00;;;5.70;;
30697;SDS011;17448;47.200;10.902;2023-04-07T06:45:36;10.73;;;5.47;;
30697;SDS011;17448;47.200;10.902;2023-04-07T06:48:02;12.80;;;6.05;;
30697;SDS011;17448;47.200;10.902;2023-04-07T06:50:28;8.45;;;5.78;;
30697;SDS011;17448;47.200;10.902;2023-04-07T06:52:55;11.95;;;6.10;;
30697;SDS011;17448;47.200;10.902;2023-04-07T06:55:21;10.15;;;5.30;;
30697;SDS011;17448;47.200;10.902;2023-04-07T06:57:47;13.38;;;6.45;;
30697;SDS011;17448;47.200;10.902;2023-04-07T07:00:16;13.35;;;6.55;;
30697;SDS011;17448;47.200;10.902;2023-04-07T07:02:43;12.57;;;6.65;;
30697;SDS011;17448;47.200;10.902;2023-04-07T07:05:09;12.18;;;6.22;;
30697;SDS011;17448;47.200;10.902;2023-04-07T07:07:36;10.15;;;5.15;;
30697;SDS011;17448;47.200;10.902;2023-04-07T07:10:02;9.93;;;5.85;;
30697;SDS011;17448;47.200;10.902;2023-04-07T07:12:28;13.23;;;5.95;;
30697;SDS011;17448;47.200;10.902;2023-04-07T07:14:54;9.70;;;5.68;;
30697;SDS011;17448;47.200;10.902;2023-04-07T07:17:21;10.98;;;5.95;;
30697;SDS011;17448;47.200;10.902;2023-04-07T07:19:47;9.80;;;5.38;;
30697;SDS011;17448;47.200;10.902;2023-04-07T07:22:13;7.68;;;5.50;;
30697;SDS011;17448;47.200;10.902;2023-04-07T07:24:39;7.35;;;4.55;;
30697;SDS011;17448;47.200;10.902;2023-04-07T07:27:06;8.45;;;5.78;;
30697;SDS011;17448;47.200;10.902;2023-04-07T07:29:35;10.45;;;5.20;;
30697;SDS011;17448;47.200;10.902;2023-04-07T07:32:01;11.57;;;5.25;;
30697;SDS011;17448;47.200;10.902;2023-04-07T07:34:28;8.65;;;4.57;;
30697;SDS011;17448;47.200;10.902;2023-04-07T07:36:54;9.63;;;5.07;;
30697;SDS011;17448;47.200;10.902;2023-04-07T07:39:20;9.40;;;5.30;;
30697;SDS011;17448;47.200;10.902;2023-04-07T07:41:46;10.70;;;5.63;;
30697;SDS011;17448;47.200;10.902;2023-04-07T07:44:14;9.40;;;5.57;;
30697;SDS011;17448;47.200;10.902;2023-04-07T07:46:40;10.73;;;5.53;;
30697;SDS011;17448;47.200;10.902;2023-04-07T07:49:07;9.48;;;5.40;;
30697;SDS011;17448;47.200;10.902;2023-04-07T07:51:33;10.95;;;5.43;;
30697;SDS011;17448;47.200;10.902;2023-04-07T07:54:00;10.20;;;5.75;;
30697;SDS011;17448;47.200;10.902;2023-04-07T07:56:26;8.77;;;5.05;;
30697;SDS011;17448;47.200;10.902;2023-04-07T07:58:52;12.85;;;5.90;;
30697;SDS011;17448;47.200;10.902;2023-04-07T08:01:19;8.93;;;4.72;;
30697;SDS011;17448;47.200;10.902;2023-04-07T08:03:45;9.48;;;5.43;;
30697;SDS011;17448;47.200;10.902;2023-04-07T08:06:11;11.25;;;5.93;;
30697;SDS011;17448;47.200;10.902;2023-04-07T08:08:38;7.60;;;4.55;;
30697;SDS011;17448;47.200;10.902;2023-04-07T08:11:04;6.78;;;4.60;;
30697;SDS011;17448;47.200;10.902;2023-04-07T08:13:30;11.18;;;4.85;;
30697;SDS011;17448;47.200;10.902;2023-04-07T08:15:56;10.77;;;5.35;;
30697;SDS011;17448;47.200;10.902;2023-04-07T08:18:22;13.57;;;5.47;;
30697;SDS011;17448;47.200;10.902;2023-04-07T08:20:49;9.55;;;4.78;;
30697;SDS011;17448;47.200;10.902;2023-04-07T08:23:16;9.48;;;4.72;;
30697;SDS011;17448;47.200;10.902;2023-04-07T08:25:42;7.28;;;4.97;;
30697;SDS011;17448;47.200;10.902;2023-04-07T08:28:08;6.45;;;4.28;;
30697;SDS011;17448;47.200;10.902;2023-04-07T08:30:34;8.80;;;5.28;;
30697;SDS011;17448;47.200;10.902;2023-04-07T08:33:00;5.85;;;4.60;;
30697;SDS011;17448;47.200;10.902;2023-04-07T08:35:26;8.80;;;5.18;;
30697;SDS011;17448;47.200;10.902;2023-04-07T08:37:53;7.43;;;5.00;;
30697;SDS011;17448;47.200;10.902;2023-04-07T08:40:19;7.07;;;4.25;;
30697;SDS011;17448;47.200;10.902;2023-04-07T08:42:45;7.00;;;4.05;;
30697;SDS011;17448;47.200;10.902;2023-04-07T08:45:13;8.45;;;4.65;;
30697;SDS011;17448;47.200;10.902;2023-04-07T08:47:41;8.52;;;4.47;;
30697;SDS011;17448;47.200;10.902;2023-04-07T08:50:08;6.68;;;4.10;;
30697;SDS011;17448;47.200;10.902;2023-04-07T08:55:11;6.97;;;4.85;;
30697;SDS011;17448;47.200;10.902;2023-04-07T08:57:37;10.65;;;5.00;;
30697;SDS011;17448;47.200;10.902;2023-04-07T09:00:04;6.72;;;4.80;;
30697;SDS011;17448;47.200;10.902;2023-04-07T09:02:31;8.05;;;4.72;;
30697;SDS011;17448;47.200;10.902;2023-04-07T09:04:58;6.82;;;4.93;;
30697;SDS011;17448;47.200;10.902;2023-04-07T09:07:24;8.80;;;4.85;;
30697;SDS011;17448;47.200;10.902;2023-04-07T09:09:50;7.38;;;5.03;;
30697;SDS011;17448;47.200;10.902;2023-04-07T09:12:17;7.28;;;4.95;;
30697;SDS011;17448;47.200;10.902;2023-04-07T09:14:43;7.80;;;4.57;;
30697;SDS011;17448;47.200;10.902;2023-04-07T09:17:09;12.23;;;4.93;;
30697;SDS011;17448;47.200;10.902;2023-04-07T09:19:35;8.60;;;5.07;;
30697;SDS011;17448;47.200;10.902;2023-04-07T09:22:01;6.10;;;4.50;;
30697;SDS011;17448;47.200;10.902;2023-04-07T09:24:28;6.50;;;4.70;;
30697;SDS011;17448;47.200;10.902;2023-04-07T09:27:14;6.55;;;4.80;;
30697;SDS011;17448;47.200;10.902;2023-04-07T09:29:42;8.43;;;4.43;;
30697;SDS011;17448;47.200;10.902;2023-04-07T09:32:08;4.95;;;3.97;;
30697;SDS011;17448;47.200;10.902;2023-04-07T09:34:36;8.93;;;4.38;;
30697;SDS011;17448;47.200;10.902;2023-04-07T09:37:06;7.57;;;4.30;;
30697;SDS011;17448;47.200;10.902;2023-04-07T09:39:48;7.53;;;4.70;;
30697;SDS011;17448;47.200;10.902;2023-04-07T09:42:15;5.78;;;3.97;;
30697;SDS011;17448;47.200;10.902;2023-04-07T09:44:41;5.97;;;4.40;;
30697;SDS011;17448;47.200;10.902;2023-04-07T09:47:08;5.57;;;4.03;;
30697;SDS011;17448;47.200;10.902;2023-04-07T09:49:48;9.25;;;4.30;;
30697;SDS011;17448;47.200;10.902;2023-04-07T09:52:16;6.82;;;4.15;;
30697;SDS011;17448;47.200;10.902;2023-04-07T09:54:44;10.98;;;4.10;;
30697;SDS011;17448;47.200;10.902;2023-04-07T09:57:11;5.70;;;4.35;;
30697;SDS011;17448;47.200;10.902;2023-04-07T09:59:43;8.63;;;4.75;;
30697;SDS011;17448;47.200;10.902;2023-04-07T10:02:10;6.40;;;4.90;;
30697;SDS011;17448;47.200;10.902;2023-04-07T10:04:37;7.40;;;4.57;;
30697;SDS011;17448;47.200;10.902;2023-04-07T10:07:04;6.32;;;3.63;;
30697;SDS011;17448;47.200;10.902;2023-04-07T10:09:31;5.70;;;4.30;;
30697;SDS011;17448;47.200;10.902;2023-04-07T10:11:57;5.03;;;3.75;;
30697;SDS011;17448;47.200;10.902;2023-04-07T10:14:25;6.97;;;4.00;;
30697;SDS011;17448;47.200;10.902;2023-04-07T10:16:51;6.38;;;4.45;;
30697;SDS011;17448;47.200;10.902;2023-04-07T10:19:19;4.65;;;3.65;;
30697;SDS011;17448;47.200;10.902;2023-04-07T10:21:46;5.28;;;3.72;;
30697;SDS011;17448;47.200;10.902;2023-04-07T10:27:00;4.13;;;3.63;;
30697;SDS011;17448;47.200;10.902;2023-04-07T10:29:28;6.78;;;4.13;;
30697;SDS011;17448;47.200;10.902;2023-04-07T10:31:58;6.47;;;4.22;;
30697;SDS011;17448;47.200;10.902;2023-04-07T10:37:10;6.70;;;4.65;;
30697;SDS011;17448;47.200;10.902;2023-04-07T10:39:37;7.72;;;4.30;;
30697;SDS011;17448;47.200;10.902;2023-04-07T10:42:04;8.05;;;4.00;;
30697;SDS011;17448;47.200;10.902;2023-04-07T10:44:43;6.57;;;3.97;;
30697;SDS011;17448;47.200;10.902;2023-04-07T10:47:10;4.78;;;3.83;;
30697;SDS011;17448;47.200;10.902;2023-04-07T10:49:36;4.20;;;2.58;;
30697;SDS011;17448;47.200;10.902;2023-04-07T10:54:39;5.97;;;3.42;;
30697;SDS011;17448;47.200;10.902;2023-04-07T10:57:09;6.00;;;3.72;;
30697;SDS011;17448;47.200;10.902;2023-04-07T10:59:37;5.75;;;4.05;;
30697;SDS011;17448;47.200;10.902;2023-04-07T11:04:39;6.90;;;4.22;;
30697;SDS011;17448;47.200;10.902;2023-04-07T11:07:06;7.57;;;4.45;;
30697;SDS011;17448;47.200;10.902;2023-04-07T11:09:32;5.15;;;4.05;;
30697;SDS011;17448;47.200;10.902;2023-04-07T11:11:59;4.95;;;3.47;;
30697;SDS011;17448;47.200;10.902;2023-04-07T11:14:25;4.82;;;3.88;;
30697;SDS011;17448;47.200;10.902;2023-04-07T11:16:52;5.65;;;4.38;;
30697;SDS011;17448;47.200;10.902;2023-04-07T11:19:18;4.53;;;3.50;;
30697;SDS011;17448;47.200;10.902;2023-04-07T11:21:45;4.30;;;3.28;;
30697;SDS011;17448;47.200;10.902;2023-04-07T11:26:56;4.15;;;2.80;;
30697;SDS011;17448;47.200;10.902;2023-04-07T11:29:32;3.15;;;2.30;;
30697;SDS011;17448;47.200;10.902;2023-04-07T11:31:59;3.78;;;2.70;;
30697;SDS011;17448;47.200;10.902;2023-04-07T11:34:33;3.22;;;2.20;;
30697;SDS011;17448;47.200;10.902;2023-04-07T11:39:54;2.55;;;2.17;;
30697;SDS011;17448;47.200;10.902;2023-04-07T11:42:34;3.20;;;2.40;;
30697;SDS011;17448;47.200;10.902;2023-04-07T11:45:01;3.85;;;2.30;;
30697;SDS011;17448;47.200;10.902;2023-04-07T11:47:37;3.90;;;2.40;;
30697;SDS011;17448;47.200;10.902;2023-04-07T11:50:04;2.10;;;1.80;;
30697;SDS011;17448;47.200;10.902;2023-04-07T11:52:43;2.72;;;1.63;;
30697;SDS011;17448;47.200;10.902;2023-04-07T11:55:19;2.00;;;1.60;;
30697;SDS011;17448;47.200;10.902;2023-04-07T11:57:47;2.40;;;1.70;;
30697;SDS011;17448;47.200;10.902;2023-04-07T12:00:15;2.60;;;2.15;;
30697;SDS011;17448;47.200;10.902;2023-04-07T12:02:42;3.03;;;2.20;;
30697;SDS011;17448;47.200;10.902;2023-04-07T12:05:08;3.30;;;2.45;;
30697;SDS011;17448;47.200;10.902;2023-04-07T12:07:38;4.78;;;2.30;;
30697;SDS011;17448;47.200;10.902;2023-04-07T12:10:18;3.15;;;2.25;;
30697;SDS011;17448;47.200;10.902;2023-04-07T12:12:45;5.38;;;2.38;;
30697;SDS011;17448;47.200;10.902;2023-04-07T12:15:11;2.28;;;1.70;;
30697;SDS011;17448;47.200;10.902;2023-04-07T12:17:38;3.33;;;1.60;;
30697;SDS011;17448;47.200;10.902;2023-04-07T12:20:09;2.38;;;1.80;;
30697;SDS011;17448;47.200;10.902;2023-04-07T12:22:35;2.97;;;2.13;;
30697;SDS011;17448;47.200;10.902;2023-04-07T12:25:01;2.30;;;1.90;;
30697;SDS011;17448;47.200;10.902;2023-04-07T12:27:28;2.28;;;1.73;;
30697;SDS011;17448;47.200;10.902;2023-04-07T12:29:54;2.33;;;1.88;;
30697;SDS011;17448;47.200;10.902;2023-04-07T12:32:20;2.28;;;1.73;;
30697;SDS011;17448;47.200;10.902;2023-04-07T12:34:47;2.10;;;1.50;;
30697;SDS011;17448;47.200;10.902;2023-04-07T12:37:13;2.67;;;1.77;;
30697;SDS011;17448;47.200;10.902;2023-04-07T12:39:39;2.97;;;1.80;;
30697;SDS011;17448;47.200;10.902;2023-04-07T12:42:05;3.25;;;2.33;;
30697;SDS011;17448;47.200;10.902;2023-04-07T12:44:36;4.15;;;2.08;;
30697;SDS011;17448;47.200;10.902;2023-04-07T12:47:02;3.10;;;2.10;;
30697;SDS011;17448;47.200;10.902;2023-04-07T12:49:28;3.25;;;1.90;;
30697;SDS011;17448;47.200;10.902;2023-04-07T12:51:55;3.92;;;2.25;;
30697;SDS011;17448;47.200;10.902;2023-04-07T12:54:22;2.28;;;1.83;;
30697;SDS011;17448;47.200;10.902;2023-04-07T12:56:48;3.65;;;2.15;;
30697;SDS011;17448;47.200;10.902;2023-04-07T12:59:15;4.38;;;1.90;;
30697;SDS011;17448;47.200;10.902;2023-04-07T13:01:42;2.60;;;1.90;;
30697;SDS011;17448;47.200;10.902;2023-04-07T13:04:08;4.70;;;2.30;;
30697;SDS011;17448;47.200;10.902;2023-04-07T13:06:35;3.45;;;2.10;;
30697;SDS011;17448;47.200;10.902;2023-04-07T13:09:01;2.80;;;1.63;;
30697;SDS011;17448;47.200;10.902;2023-04-07T13:11:27;4.40;;;2.30;;
30697;SDS011;17448;47.200;10.902;2023-04-07T13:13:53;3.33;;;2.15;;
30697;SDS011;17448;47.200;10.902;2023-04-07T13:16:19;2.65;;;1.70;;
30697;SDS011;17448;47.200;10.902;2023-04-07T13:18:46;1.70;;;1.60;;
30697;SDS011;17448;47.200;10.902;2023-04-07T13:21:12;3.92;;;1.70;;
30697;SDS011;17448;47.200;10.902;2023-04-07T13:23:38;2.92;;;2.03;;
30697;SDS011;17448;47.200;10.902;2023-04-07T13:26:04;2.42;;;1.70;;
30697;SDS011;17448;47.200;10.902;2023-04-07T13:28:30;4.13;;;1.60;;
30697;SDS011;17448;47.200;10.902;2023-04-07T13:30:58;2.92;;;1.42;;
30697;SDS011;17448;47.200;10.902;2023-04-07T13:33:24;6.22;;;1.55;;
30697;SDS011;17448;47.200;10.902;2023-04-07T13:35:50;6.00;;;1.50;;
30697;SDS011;17448;47.200;10.902;2023-04-07T13:38:16;1.35;;;1.08;;
30697;SDS011;17448;47.200;10.902;2023-04-07T13:40:43;3.67;;;1.42;;
30697;SDS011;17448;47.200;10.902;2023-04-07T13:43:09;4.18;;;1.73;;
30697;SDS011;17448;47.200;10.902;2023-04-07T13:45:36;4.72;;;1.75;;
30697;SDS011;17448;47.200;10.902;2023-04-07T13:48:03;2.05;;;1.60;;
30697;SDS011;17448;47.200;10.902;2023-04-07T13:50:29;1.65;;;1.52;;
30697;SDS011;17448;47.200;10.902;2023-04-07T13:52:55;5.05;;;1.60;;
30697;SDS011;17448;47.200;10.902;2023-04-07T13:55:22;4.68;;;1.80;;
30697;SDS011;17448;47.200;10.902;2023-04-07T13:57:48;3.10;;;1.55;;
30697;SDS011;17448;47.200;10.902;2023-04-07T14:00:14;3.05;;;1.70;;
30697;SDS011;17448;47.200;10.902;2023-04-07T14:02:41;1.45;;;1.33;;
30697;SDS011;17448;47.200;10.902;2023-04-07T14:05:09;5.50;;;1.60;;
30697;SDS011;17448;47.200;10.902;2023-04-07T14:07:35;3.60;;;1.70;;
30697;SDS011;17448;47.200;10.902;2023-04-07T14:10:01;4.97;;;1.80;;
30697;SDS011;17448;47.200;10.902;2023-04-07T14:12:28;3.70;;;1.80;;
30697;SDS011;17448;47.200;10.902;2023-04-07T14:14:54;2.55;;;1.60;;
30697;SDS011;17448;47.200;10.902;2023-04-07T14:17:20;2.08;;;1.70;;
30697;SDS011;17448;47.200;10.902;2023-04-07T14:19:46;3.40;;;1.80;;
30697;SDS011;17448;47.200;10.902;2023-04-07T14:22:13;1.77;;;1.58;;
30697;SDS011;17448;47.200;10.902;2023-04-07T14:24:39;4.43;;;2.00;;
30697;SDS011;17448;47.200;10.902;2023-04-07T14:27:06;2.55;;;1.88;;
30697;SDS011;17448;47.200;10.902;2023-04-07T14:29:32;14.35;;;6.80;;
30697;SDS011;17448;47.200;10.902;2023-04-07T14:31:58;5.60;;;3.83;;
30697;SDS011;17448;47.200;10.902;2023-04-07T14:34:24;5.50;;;2.45;;
30697;SDS011;17448;47.200;10.902;2023-04-07T14:36:54;10.70;;;6.30;;
30697;SDS011;17448;47.200;10.902;2023-04-07T14:39:22;2.97;;;1.90;;
30697;SDS011;17448;47.200;10.902;2023-04-07T14:41:49;1.80;;;1.70;;
30697;SDS011;17448;47.200;10.902;2023-04-07T14:44:15;3.13;;;2.40;;
30697;SDS011;17448;47.200;10.902;2023-04-07T14:46:41;3.05;;;1.70;;
30697;SDS011;17448;47.200;10.902;2023-04-07T14:49:08;7.00;;;2.28;;
30697;SDS011;17448;47.200;10.902;2023-04-07T14:51:34;2.20;;;1.63;;
30697;SDS011;17448;47.200;10.902;2023-04-07T14:54:00;3.65;;;2.05;;
30697;SDS011;17448;47.200;10.902;2023-04-07T14:56:27;2.55;;;1.70;;
30697;SDS011;17448;47.200;10.902;2023-04-07T14:58:53;2.97;;;1.73;;
30697;SDS011;17448;47.200;10.902;2023-04-07T15:01:19;5.85;;;2.17;;
30697;SDS011;17448;47.200;10.902;2023-04-07T15:03:45;2.60;;;1.90;;